Station Historical Data
Daily Summary for January 14, 2018 Units:  English    Metric   Both
« Previous Day
Next Day »
Daily Weekly Monthly Yearly Custom
  High: Low: Average:
Temperature: 18.5 °F -1.8 °F 8.8 °F
Dew Point: 9.4 °F -6.0 °F 2.7 °F
Humidity: 84% 60% 76%
Wind Speed: 4.0mph 0.0mph 0.7mph
Wind Gust: 8.0mph - -
Wind- - SSW
Pressure: 30.77 in 30.62 in -
Precipitation: 0.00 in    
Historical Graphs
 
 
Tabular Data for January 14, 2018
Time Temperature Dew Point Pressure Wind Wind Speed Wind Gust Humidity Rainfall Rate (Hourly)
00:04 8.4 °F 3.5 °F 30.62 in Calm   3.0 mph 80% 0.00 in
00:09 8.3 °F 3.4 °F 30.62 in Calm     80% 0.00 in
00:14 8.3 °F 3.4 °F 30.62 in Calm     80% 0.00 in
00:19 8.2 °F 3.6 °F 30.62 in Calm     81% 0.00 in
00:24 8.2 °F 3.6 °F 30.62 in Calm     81% 0.00 in
00:29 8.2 °F 3.6 °F 30.62 in Calm     81% 0.00 in
00:34 8.2 °F 3.6 °F 30.62 in Calm     81% 0.00 in
00:39 8.2 °F 3.6 °F 30.62 in Calm     81% 0.00 in
00:44 8.3 °F 3.7 °F 30.62 in Calm     81% 0.00 in
00:49 8.4 °F 3.8 °F 30.62 in Calm     81% 0.00 in
00:54 8.4 °F 3.8 °F 30.62 in Calm     81% 0.00 in
00:59 8.4 °F 3.8 °F 30.62 in Calm     81% 0.00 in
01:05 8.4 °F 4.0 °F 30.62 in Calm     82% 0.00 in
01:10 8.5 °F 4.1 °F 30.63 in Calm     82% 0.00 in
01:15 8.4 °F 4.0 °F 30.63 in Calm     82% 0.00 in
01:20 8.4 °F 4.0 °F 30.63 in Calm     82% 0.00 in
01:25 8.4 °F 4.0 °F 30.63 in Calm     82% 0.00 in
01:30 8.4 °F 4.0 °F 30.63 in Calm     82% 0.00 in
01:35 8.5 °F 4.1 °F 30.63 in Calm     82% 0.00 in
01:40 8.5 °F 4.1 °F 30.63 in Calm     82% 0.00 in
01:45 8.5 °F 4.1 °F 30.63 in Calm     82% 0.00 in
01:50 8.5 °F 4.1 °F 30.63 in Calm     82% 0.00 in
01:55 8.4 °F 4.0 °F 30.64 in Calm     82% 0.00 in
02:00 8.5 °F 4.1 °F 30.64 in West 1.0 mph 5.0 mph 82% 0.00 in
02:05 8.4 °F 4.0 °F 30.64 in West 2.0 mph 5.0 mph 82% 0.00 in
02:10 8.2 °F 3.8 °F 30.64 in WSW 1.0 mph 5.0 mph 82% 0.00 in
02:15 8.1 °F 3.7 °F 30.64 in West 2.0 mph 5.0 mph 82% 0.00 in
02:20 7.9 °F 3.5 °F 30.65 in West 2.0 mph 3.0 mph 82% 0.00 in
02:25 7.7 °F 3.4 °F 30.65 in West 2.0 mph 3.0 mph 82% 0.00 in
02:30 7.4 °F 3.1 °F 30.65 in West 1.0 mph 2.0 mph 82% 0.00 in
02:35 7.2 °F 2.9 °F 30.65 in Calm   2.0 mph 82% 0.00 in
02:40 7.0 °F 2.4 °F 30.65 in Calm   2.0 mph 81% 0.00 in
02:45 6.7 °F 2.1 °F 30.66 in Calm   2.0 mph 81% 0.00 in
02:50 6.4 °F 1.8 °F 30.66 in Calm   1.0 mph 81% 0.00 in
02:55 6.2 °F 1.6 °F 30.66 in Calm   1.0 mph 81% 0.00 in
03:00 5.7 °F 1.1 °F 30.66 in Calm   1.0 mph 81% 0.00 in
03:05 5.4 °F 0.8 °F 30.66 in Calm   1.0 mph 81% 0.00 in
03:10 5.3 °F 0.7 °F 30.66 in Calm     81% 0.00 in
03:15 5.0 °F 0.4 °F 30.66 in Calm   2.0 mph 81% 0.00 in
03:20 4.7 °F 0.2 °F 30.66 in Calm   3.0 mph 81% 0.00 in
03:25 4.5 °F 0.0 °F 30.67 in Calm   3.0 mph 81% 0.00 in
03:35 4.1 °F -0.4 °F 30.67 in West 1.0 mph 2.0 mph 81% 0.00 in
03:40 4.0 °F -0.5 °F 30.67 in Calm   2.0 mph 81% 0.00 in
03:45 3.8 °F -0.7 °F 30.67 in Calm     81% 0.00 in
03:50 3.7 °F -0.8 °F 30.67 in Calm     81% 0.00 in
03:55 3.6 °F -0.7 °F 30.67 in Calm     82% 0.00 in
04:00 3.5 °F -0.8 °F 30.67 in Calm     82% 0.00 in
04:05 3.3 °F -1.0 °F 30.67 in Calm     82% 0.00 in
04:10 3.1 °F -1.4 °F 30.67 in Calm     81% 0.00 in
04:15 2.7 °F -1.8 °F 30.67 in Calm     81% 0.00 in
04:20 2.6 °F -1.9 °F 30.67 in Calm     81% 0.00 in
04:25 2.4 °F -2.1 °F 30.68 in Calm     81% 0.00 in
04:30 2.3 °F -2.2 °F 30.67 in Calm     81% 0.00 in
04:35 2.2 °F -2.0 °F 30.68 in Calm     82% 0.00 in
04:40 1.9 °F -2.6 °F 30.68 in Calm     81% 0.00 in
04:45 1.7 °F -2.8 °F 30.68 in Calm     81% 0.00 in
04:50 1.6 °F -2.9 °F 30.68 in Calm     81% 0.00 in
04:55 1.3 °F -3.2 °F 30.69 in Calm     81% 0.00 in
05:00 1.2 °F -3.0 °F 30.69 in Calm     82% 0.00 in
05:05 1.1 °F -3.1 °F 30.69 in Calm     82% 0.00 in
05:10 1.0 °F -3.2 °F 30.69 in Calm     82% 0.00 in
05:15 1.0 °F -3.2 °F 30.69 in Calm     82% 0.00 in
05:20 1.0 °F -3.2 °F 30.70 in Calm     82% 0.00 in
05:25 1.0 °F -3.2 °F 30.70 in Calm     82% 0.00 in
05:30 1.1 °F -3.1 °F 30.70 in Calm     82% 0.00 in
05:35 1.2 °F -3.0 °F 30.70 in Calm     82% 0.00 in
05:40 1.2 °F -3.0 °F 30.70 in Calm     82% 0.00 in
05:44 1.3 °F -2.7 °F 30.70 in Calm     83% 0.00 in
05:54 1.5 °F -2.5 °F 30.70 in Calm     83% 0.00 in
05:59 1.5 °F -2.5 °F 30.71 in Calm     83% 0.00 in
06:04 1.4 °F -2.6 °F 30.71 in Calm     83% 0.00 in
06:10 1.4 °F -2.6 °F 30.71 in Calm     83% 0.00 in
06:15 1.3 °F -2.7 °F 30.71 in Calm     83% 0.00 in
06:19 1.2 °F -2.8 °F 30.71 in Calm     83% 0.00 in
06:25 1.1 °F -3.1 °F 30.71 in Calm     82% 0.00 in
06:35 0.9 °F -3.1 °F 30.71 in Calm     83% 0.00 in
06:40 0.9 °F -3.1 °F 30.71 in Calm     83% 0.00 in
06:45 0.8 °F -3.2 °F 30.71 in Calm     83% 0.00 in
06:49 0.6 °F -3.3 °F 30.72 in Calm     83% 0.00 in
06:54 0.5 °F -3.7 °F 30.72 in Calm     82% 0.00 in
07:05 0.1 °F -4.1 °F 30.72 in Calm     82% 0.00 in
07:09 -0.1 °F -4.3 °F 30.72 in Calm     82% 0.00 in
07:15 -0.3 °F -4.5 °F 30.72 in Calm     82% 0.00 in
07:19 -0.6 °F -4.8 °F 30.72 in Calm     82% 0.00 in
07:24 -0.8 °F -5.0 °F 30.72 in Calm     82% 0.00 in
07:30 -1.0 °F -5.2 °F 30.72 in Calm     82% 0.00 in
07:40 -1.5 °F -5.7 °F 30.73 in Calm     82% 0.00 in
07:45 -1.6 °F -5.8 °F 30.73 in Calm     82% 0.00 in
07:50 -1.7 °F -5.9 °F 30.73 in Calm     82% 0.00 in
07:55 -1.8 °F -6.0 °F 30.73 in Calm     82% 0.00 in
08:00 -1.8 °F -6.0 °F 30.73 in Calm     82% 0.00 in
08:04 -1.7 °F -5.9 °F 30.73 in Calm     82% 0.00 in
08:10 -1.6 °F -5.8 °F 30.74 in Calm     82% 0.00 in
08:15 -1.5 °F -5.7 °F 30.74 in Calm     82% 0.00 in
08:19 -1.4 °F -5.3 °F 30.74 in Calm     83% 0.00 in
08:24 -1.1 °F -5.0 °F 30.74 in SW 2.0 mph 3.0 mph 83% 0.00 in
08:29 -0.9 °F -4.8 °F 30.74 in SSW 1.0 mph 3.0 mph 83% 0.00 in
08:34 -0.5 °F -4.4 °F 30.74 in SSW 2.0 mph 3.0 mph 83% 0.00 in
08:40 -0.2 °F -4.1 °F 30.74 in SSW 2.0 mph 3.0 mph 83% 0.00 in
08:45 0.2 °F -3.5 °F 30.74 in South 1.0 mph 4.0 mph 84% 0.00 in
08:50 0.6 °F -3.1 °F 30.75 in South 4.0 mph 4.0 mph 84% 0.00 in
09:00 3.2 °F -0.5 °F 30.75 in Calm   4.0 mph 84% 0.00 in
09:05 3.5 °F -0.2 °F 30.75 in Calm     84% 0.00 in
09:09 4.1 °F 0.3 °F 30.76 in Calm     84% 0.00 in
09:14 4.5 °F 0.7 °F 30.76 in Calm     84% 0.00 in
09:20 5.1 °F 1.1 °F 30.76 in Calm     83% 0.00 in
09:25 5.4 °F 1.4 °F 30.76 in Calm     83% 0.00 in
09:29 5.9 °F 1.8 °F 30.76 in Calm     83% 0.00 in
09:34 6.1 °F 1.8 °F 30.77 in Calm     82% 0.00 in
09:39 6.4 °F 2.1 °F 30.77 in Calm     82% 0.00 in
09:50 7.4 °F 2.8 °F 30.77 in Calm   2.0 mph 81% 0.00 in
09:55 7.9 °F 3.0 °F 30.77 in South 2.0 mph 3.0 mph 80% 0.00 in
10:00 8.5 °F 3.6 °F 30.77 in South 1.0 mph 3.0 mph 80% 0.00 in
10:14 9.8 °F 4.6 °F 30.77 in SSE 2.0 mph 5.0 mph 79% 0.00 in
10:19 10.5 °F 5.0 °F 30.77 in SSE 2.0 mph 5.0 mph 78% 0.00 in
10:25 10.9 °F 5.1 °F 30.77 in SSE 2.0 mph 4.0 mph 77% 0.00 in
10:29 11.3 °F 5.5 °F 30.77 in SSE 2.0 mph 3.0 mph 77% 0.00 in
10:34 11.8 °F 6.0 °F 30.77 in SSE 2.0 mph 4.0 mph 77% 0.00 in
10:39 12.1 °F 6.0 °F 30.77 in SSE 2.0 mph 4.0 mph 76% 0.00 in
10:44 12.5 °F 6.1 °F 30.77 in SSE 1.0 mph 4.0 mph 75% 0.00 in
10:49 13.0 °F 6.6 °F 30.77 in SSE 2.0 mph 4.0 mph 75% 0.00 in
10:55 13.5 °F 6.8 °F 30.77 in SSE 2.0 mph 4.0 mph 74% 0.00 in
11:00 14.0 °F 7.2 °F 30.77 in SSE 1.0 mph 4.0 mph 74% 0.00 in
11:05 14.0 °F 6.6 °F 30.77 in SSE 1.0 mph 4.0 mph 72% 0.00 in
11:10 14.2 °F 6.8 °F 30.77 in SSE 4.0 mph 4.0 mph 72% 0.00 in
11:15 14.4 °F 6.7 °F 30.77 in SSE 3.0 mph 4.0 mph 71% 0.00 in
11:24 15.0 °F 7.0 °F 30.76 in SSE 2.0 mph 4.0 mph 70% 0.00 in
11:29 15.4 °F 7.4 °F 30.76 in SSE 1.0 mph 4.0 mph 70% 0.00 in
11:35 15.7 °F 7.6 °F 30.76 in SSE 2.0 mph 4.0 mph 70% 0.00 in
11:40 16.1 °F 8.0 °F 30.76 in SSE 2.0 mph 4.0 mph 70% 0.00 in
11:44 16.0 °F 7.3 °F 30.76 in Calm   5.0 mph 68% 0.00 in
11:50 15.7 °F 6.7 °F 30.76 in South 2.0 mph 5.0 mph 67% 0.01 in
11:59 16.3 °F 7.6 °F 30.75 in South 2.0 mph 5.0 mph 68% 0.01 in
12:04 16.3 °F 7.6 °F 30.75 in South 1.0 mph 4.0 mph 68% 0.01 in
12:09 16.7 °F 8.0 °F 30.75 in SSE 3.0 mph 4.0 mph 68% 0.01 in
12:14 16.8 °F 7.7 °F 30.75 in Calm   5.0 mph 67% 0.01 in
12:19 16.9 °F 7.8 °F 30.74 in South 3.0 mph 4.0 mph 67% 0.01 in
12:24 17.1 °F 8.0 °F 30.74 in Calm   4.0 mph 67% 0.01 in
12:29 17.4 °F 8.3 °F 30.74 in South 2.0 mph 5.0 mph 67% 0.01 in
12:34 17.3 °F 7.9 °F 30.74 in SSW 3.0 mph 7.0 mph 66% 0.03 in
12:39 17.6 °F 8.5 °F 30.74 in SW 3.0 mph 7.0 mph 67% 0.03 in
12:45 17.5 °F 8.1 °F 30.74 in SW 3.0 mph 5.0 mph 66% 0.03 in
12:50 17.5 °F 8.4 °F 30.73 in SW 3.0 mph 6.0 mph 67% 0.02 in
12:54 17.8 °F 8.7 °F 30.73 in SSW 2.0 mph 4.0 mph 67% 0.04 in
12:59 18.0 °F 8.9 °F 30.73 in WSW 4.0 mph 6.0 mph 67% 0.04 in
13:04 17.7 °F 8.3 °F 30.73 in SW 3.0 mph 6.0 mph 66% 0.04 in
13:09 17.7 °F 8.3 °F 30.73 in SW 3.0 mph 6.0 mph 66% 0.04 in
13:14 17.8 °F 8.7 °F 30.73 in West 3.0 mph 6.0 mph 67% 0.04 in
13:20 17.6 °F 8.5 °F 30.73 in WSW 4.0 mph 8.0 mph 67% 0.04 in
13:24 18.0 °F 9.2 °F 30.73 in South 2.0 mph 6.0 mph 68% 0.06 in
13:29 18.0 °F 8.9 °F 30.73 in West 2.0 mph 8.0 mph 67% 0.06 in
13:34 18.0 °F 8.9 °F 30.73 in WSW 3.0 mph 8.0 mph 67% 0.04 in
13:39 18.2 °F 9.4 °F 30.72 in WSW 2.0 mph 6.0 mph 68% 0.05 in
13:49 17.8 °F 8.7 °F 30.72 in SW 3.0 mph 7.0 mph 67% 0.05 in
13:55 18.0 °F 8.9 °F 30.72 in WSW 2.0 mph 4.0 mph 67% 0.03 in
14:00 18.1 °F 9.0 °F 30.72 in WSW 2.0 mph 5.0 mph 67% 0.03 in
14:04 18.3 °F 8.8 °F 30.72 in SW 4.0 mph 5.0 mph 66% 0.04 in
14:09 18.1 °F 8.6 °F 30.72 in SW 3.0 mph 5.0 mph 66% 0.04 in
14:14 18.1 °F 8.0 °F 30.72 in SSW 3.0 mph 5.0 mph 64% 0.04 in
14:19 17.8 °F 8.0 °F 30.72 in Calm   5.0 mph 65% 0.04 in
14:24 18.2 °F 8.4 °F 30.72 in SSW 1.0 mph 4.0 mph 65% 0.02 in
14:29 18.5 °F 8.7 °F 30.72 in SSW 3.0 mph 5.0 mph 65% 0.03 in
14:34 18.5 °F 8.3 °F 30.71 in SSW 3.0 mph 4.0 mph 64% 0.03 in
14:39 18.2 °F 7.7 °F 30.72 in SW 1.0 mph 5.0 mph 63% 0.02 in
14:44 18.1 °F 7.6 °F 30.72 in SW 3.0 mph 5.0 mph 63% 0.02 in
14:49 18.0 °F 7.2 °F 30.72 in SW 2.0 mph 4.0 mph 62% 0.02 in
14:59 18.2 °F 8.1 °F 30.72 in SW 1.0 mph 3.0 mph 64% 0.03 in
15:05 18.5 °F 8.3 °F 30.72 in SW 2.0 mph 4.0 mph 64% 0.02 in
15:10 18.4 °F 8.2 °F 30.72 in SSW 2.0 mph 5.0 mph 64% 0.02 in
15:14 18.3 °F 7.8 °F 30.72 in Calm   3.0 mph 63% 0.03 in
15:19 18.3 °F 7.8 °F 30.72 in South 2.0 mph 5.0 mph 63% 0.03 in
15:24 18.0 °F 7.2 °F 30.72 in South 2.0 mph 5.0 mph 62% 0.03 in
15:29 18.0 °F 6.8 °F 30.72 in South 1.0 mph 4.0 mph 61% 0.02 in
15:34 17.8 °F 6.6 °F 30.72 in South 2.0 mph 3.0 mph 61% 0.02 in
15:39 17.8 °F 7.0 °F 30.72 in Calm   4.0 mph 62% 0.02 in
15:44 17.5 °F 6.3 °F 30.71 in Calm   3.0 mph 61% 0.03 in
15:49 17.4 °F 5.9 °F 30.71 in South 1.0 mph 3.0 mph 60% 0.03 in
15:59 17.0 °F 5.9 °F 30.71 in South 2.0 mph 4.0 mph 61% 0.02 in
16:04 16.8 °F 5.7 °F 30.71 in South 1.0 mph 4.0 mph 61% 0.02 in
16:09 16.6 °F 5.5 °F 30.71 in Calm   2.0 mph 61% 0.02 in
16:15 16.2 °F 5.1 °F 30.71 in Calm   2.0 mph 61% 0.01 in
16:19 16.1 °F 5.4 °F 30.71 in South 1.0 mph 3.0 mph 62% 0.01 in
16:24 15.9 °F 4.8 °F 30.71 in South 1.0 mph 3.0 mph 61% 0.01 in
16:29 15.7 °F 4.3 °F 30.71 in Calm   2.0 mph 60% 0.01 in
16:34 15.6 °F 4.2 °F 30.71 in Calm     60% 0.01 in
16:49 15.0 °F 3.6 °F 30.71 in Calm   2.0 mph 60% 0.00 in
17:04 13.6 °F 3.3 °F 30.71 in Calm     63% 0.00 in
17:09 13.2 °F 3.3 °F 30.71 in Calm     64% 0.00 in
17:19 12.5 °F 3.3 °F 30.72 in Calm     66% 0.00 in
17:24 12.1 °F 3.2 °F 30.72 in Calm     67% 0.00 in
17:29 11.9 °F 3.7 °F 30.72 in Calm     69% 0.00 in
17:34 11.6 °F 3.7 °F 30.72 in Calm     70% 0.00 in
17:39 11.4 °F 3.8 °F 30.72 in Calm     71% 0.00 in
17:44 11.2 °F 3.6 °F 30.72 in Calm     71% 0.00 in
17:49 11.0 °F 3.7 °F 30.72 in Calm     72% 0.00 in
17:54 10.9 °F 3.9 °F 30.72 in Calm     73% 0.00 in
17:59 10.8 °F 4.1 °F 30.72 in Calm     74% 0.00 in
18:04 10.7 °F 4.0 °F 30.72 in Calm     74% 0.00 in
18:09 10.5 °F 4.1 °F 30.72 in Calm     75% 0.00 in
18:14 10.5 °F 4.1 °F 30.72 in Calm     75% 0.00 in
18:19 10.8 °F 4.4 °F 30.72 in Calm     75% 0.00 in
18:24 11.3 °F 4.9 °F 30.72 in Calm     75% 0.00 in
18:29 11.4 °F 5.0 °F 30.72 in Calm     75% 0.00 in
18:34 11.3 °F 4.9 °F 30.72 in Calm     75% 0.00 in
18:39 11.3 °F 4.9 °F 30.72 in Calm   1.0 mph 75% 0.00 in
18:44 11.2 °F 4.8 °F 30.71 in Calm   1.0 mph 75% 0.00 in
18:54 11.2 °F 5.1 °F 30.71 in Calm   1.0 mph 76% 0.00 in
18:59 11.2 °F 5.1 °F 30.72 in Calm   2.0 mph 76% 0.00 in
19:04 11.1 °F 5.0 °F 30.72 in Calm   2.0 mph 76% 0.00 in
19:09 11.0 °F 4.9 °F 30.72 in Calm   1.0 mph 76% 0.00 in
19:14 10.8 °F 4.7 °F 30.72 in Calm   1.0 mph 76% 0.00 in
19:19 10.7 °F 4.6 °F 30.71 in Calm     76% 0.00 in
19:24 10.6 °F 4.5 °F 30.71 in Calm     76% 0.00 in
19:29 10.6 °F 4.5 °F 30.71 in South 2.0 mph 2.0 mph 76% 0.00 in
19:34 10.7 °F 4.3 °F 30.71 in SSE 2.0 mph 4.0 mph 75% 0.00 in
19:39 10.6 °F 4.2 °F 30.71 in Calm   3.0 mph 75% 0.00 in
19:49 10.3 °F 3.9 °F 30.71 in SSE 1.0 mph 4.0 mph 75% 0.00 in
19:54 10.1 °F 4.0 °F 30.70 in SSE 1.0 mph 4.0 mph 76% 0.00 in
19:59 9.9 °F 3.8 °F 30.70 in SSE 1.0 mph 4.0 mph 76% 0.00 in
20:04 9.7 °F 3.7 °F 30.70 in SSE 1.0 mph 4.0 mph 76% 0.00 in
20:09 9.5 °F 3.5 °F 30.70 in SSE 1.0 mph 4.0 mph 76% 0.00 in
20:14 9.3 °F 3.5 °F 30.70 in SE 1.0 mph 4.0 mph 77% 0.00 in
20:19 9.3 °F 3.3 °F 30.70 in Calm   4.0 mph 76% 0.00 in
20:24 9.1 °F 3.1 °F 30.70 in SE 2.0 mph 4.0 mph 76% 0.00 in
20:29 9.0 °F 3.3 °F 30.70 in Calm   3.0 mph 77% 0.00 in
20:34 8.9 °F 3.2 °F 30.70 in Calm   2.0 mph 77% 0.00 in
20:39 8.8 °F 3.1 °F 30.70 in Calm     77% 0.00 in
20:44 8.6 °F 2.9 °F 30.71 in Calm     77% 0.00 in
20:49 8.5 °F 2.8 °F 30.70 in Calm     77% 0.00 in
20:54 8.4 °F 2.7 °F 30.70 in Calm     77% 0.00 in
20:59 8.3 °F 2.6 °F 30.71 in Calm     77% 0.00 in
21:04 8.2 °F 2.5 °F 30.71 in Calm     77% 0.00 in
21:09 8.0 °F 2.3 °F 30.71 in Calm   3.0 mph 77% 0.00 in
21:14 7.8 °F 2.1 °F 30.71 in Calm   3.0 mph 77% 0.00 in
21:19 7.7 °F 2.3 °F 30.71 in Calm     78% 0.00 in
21:24 7.8 °F 2.4 °F 30.71 in Calm     78% 0.00 in
21:29 7.8 °F 2.4 °F 30.71 in Calm     78% 0.00 in
21:34 7.7 °F 2.3 °F 30.71 in Calm     78% 0.00 in
21:39 7.5 °F 2.1 °F 30.71 in Calm     78% 0.00 in
21:44 7.4 °F 2.0 °F 30.72 in Calm     78% 0.00 in
21:49 7.4 °F 2.0 °F 30.71 in Calm     78% 0.00 in
21:54 7.4 °F 2.0 °F 30.71 in Calm   3.0 mph 78% 0.00 in
21:59 7.4 °F 2.0 °F 30.72 in SE 1.0 mph 3.0 mph 78% 0.00 in
22:04 7.3 °F 1.9 °F 30.71 in Calm   3.0 mph 78% 0.00 in
22:09 7.1 °F 2.0 °F 30.71 in SE 1.0 mph 3.0 mph 79% 0.00 in
22:14 7.0 °F 1.9 °F 30.71 in Calm   2.0 mph 79% 0.00 in
22:19 6.9 °F 1.8 °F 30.71 in SE 1.0 mph 4.0 mph 79% 0.00 in
22:24 6.7 °F 1.6 °F 30.71 in SE 1.0 mph 4.0 mph 79% 0.00 in
22:29 6.6 °F 1.5 °F 30.71 in Calm   3.0 mph 79% 0.00 in
22:39 6.4 °F 1.3 °F 30.71 in Calm     79% 0.00 in
22:44 6.5 °F 1.6 °F 30.71 in Calm     80% 0.00 in
22:49 6.4 °F 1.5 °F 30.71 in Calm     80% 0.00 in
22:54 6.4 °F 1.3 °F 30.71 in Calm     79% 0.00 in
22:59 6.3 °F 1.2 °F 30.71 in Calm     79% 0.00 in
23:04 6.2 °F 1.1 °F 30.70 in Calm     79% 0.00 in
23:09 6.2 °F 1.4 °F 30.70 in Calm     80% 0.00 in
23:14 6.0 °F 1.2 °F 30.70 in Calm     80% 0.00 in
23:19 5.9 °F 1.1 °F 30.70 in Calm     80% 0.00 in
23:24 5.9 °F 1.1 °F 30.70 in Calm     80% 0.00 in
23:29 5.9 °F 1.1 °F 30.70 in Calm     80% 0.00 in
23:34 5.9 °F 1.1 °F 30.70 in Calm     80% 0.00 in
23:39 5.9 °F 1.1 °F 30.70 in Calm     80% 0.00 in
23:44 6.1 °F 1.3 °F 30.70 in Calm     80% 0.00 in
23:49 6.1 °F 1.3 °F 30.70 in Calm     80% 0.00 in
23:54 6.2 °F 1.4 °F 30.70 in Calm     80% 0.00 in
23:59 6.1 °F 1.3 °F 30.70 in Calm     80% 0.00 in
Buffalo, New York, USA
Compliments of Weather Underground - 2.25 mb